Time;durP1;ratioP1;P1;durP2;ratioP2;P2;SDS_P1;SDS_P2;PMS_P1;PMS_P2;Temp;Humidity;BMP_temperature;BMP_pressure;BME280_temperature;BME280_humidity;BME280_pressure;Samples;Min_cycle;Max_cycle;Signal;HPM_P1;HPM_P2
2022/05/16 00:00:15;;;;;;;6.30;3.30;;;;;;;14.86;63.85;100465.94;5098550;28;21055;-63
2022/05/16 00:02:42;;;;;;;10.90;3.73;;;;;;;14.74;64.38;100465.38;5100101;28;20432;-63
2022/05/16 00:05:09;;;;;;;9.00;4.07;;;;;;;14.66;64.77;100463.47;5113257;28;20486;-63
2022/05/16 00:07:36;;;;;;;12.23;4.33;;;;;;;14.64;64.62;100457.41;5120277;28;20460;-63
2022/05/16 00:10:03;;;;;;;9.00;4.03;;;;;;;14.65;64.34;100453.72;5123872;28;20474;-64
2022/05/16 00:12:30;;;;;;;11.83;4.50;;;;;;;14.61;64.47;100440.75;5123917;28;20489;-63
2022/05/16 00:14:57;;;;;;;7.90;3.93;;;;;;;14.53;64.98;100440.69;5108679;28;20514;-64
2022/05/16 00:17:25;;;;;;;9.70;4.10;;;;;;;14.63;64.79;100433.34;5103404;28;20475;-63
2022/05/16 00:19:51;;;;;;;11.50;4.53;;;;;;;14.54;64.88;100420.84;5103181;28;20445;-64
2022/05/16 00:22:18;;;;;;;10.37;3.73;;;;;;;14.42;65.68;100428.38;5103378;28;20501;-64
2022/05/16 00:24:45;;;;;;;10.50;4.07;;;;;;;14.35;66.07;100425.47;5113723;28;20491;-64
2022/05/16 00:27:12;;;;;;;12.60;4.77;;;;;;;14.31;65.93;100429.50;5108438;28;20477;-64
2022/05/16 00:29:39;;;;;;;10.60;5.30;;;;;;;14.37;65.64;100428.00;5103145;28;20431;-64
2022/05/16 00:32:07;;;;;;;6.97;4.33;;;;;;;14.29;65.82;100418.06;5103123;28;20515;-63
2022/05/16 00:34:38;;;;;;;11.70;4.70;;;;;;;14.26;65.30;100421.91;5112564;28;20535;-63
2022/05/16 00:37:05;;;;;;;13.60;4.20;;;;;;;14.11;65.98;100424.38;5119040;28;20470;-63
2022/05/16 00:39:32;;;;;;;9.23;4.17;;;;;;;14.00;66.58;100437.22;5106611;28;20459;-63
2022/05/16 00:41:59;;;;;;;9.03;3.60;;;;;;;13.90;67.19;100426.56;5101686;28;20475;-63
2022/05/16 00:44:27;;;;;;;8.20;3.90;;;;;;;13.94;67.02;100423.41;5101628;28;20481;-63
2022/05/16 00:46:53;;;;;;;10.63;3.90;;;;;;;13.95;67.26;100426.94;5122487;28;20474;-63
2022/05/16 00:49:30;;;;;;;10.30;4.30;;;;;;;13.83;67.92;100418.28;5123224;28;20430;-63
2022/05/16 00:52:00;;;;;;;7.47;3.60;;;;;;;13.78;67.98;100419.78;5118433;28;20463;-63
2022/05/16 00:54:30;;;;;;;10.30;4.10;;;;;;;13.69;67.94;100425.06;5103001;28;20538;-63
2022/05/16 00:57:00;;;;;;;9.50;4.30;;;;;;;13.66;68.06;100429.91;5115110;28;20493;-63
2022/05/16 00:59:31;;;;;;;6.87;3.77;;;;;;;13.63;67.76;100416.81;5123347;28;20935;-63
2022/05/16 01:04:51;;;;;;;10.80;3.57;;;;;;;13.54;68.75;100414.06;5120113;28;20453;-63
2022/05/16 01:07:25;;;;;;;5.73;3.47;;;;;;;13.54;68.80;100419.44;5123090;28;20480;-63
2022/05/16 01:09:52;;;;;;;9.00;3.70;;;;;;;13.50;69.12;100414.53;5122902;28;21085;-63
2022/05/16 01:12:19;;;;;;;10.60;4.70;;;;;;;13.42;69.59;100401.88;5122848;28;20497;-63
2022/05/16 01:14:49;;;;;;;8.30;4.30;;;;;;;13.34;70.01;100402.63;5112761;28;20570;-63
2022/05/16 01:17:16;;;;;;;7.77;3.60;;;;;;;13.36;69.88;100406.00;5122574;28;20493;-63
2022/05/16 01:19:42;;;;;;;7.00;3.67;;;;;;;13.30;69.88;100403.09;5121686;28;20446;-64
2022/05/16 01:22:18;;;;;;;10.60;4.00;;;;;;;13.18;70.38;100407.84;5122645;28;20470;-64
2022/05/16 01:24:45;;;;;;;8.67;3.80;;;;;;;13.11;70.57;100388.81;5121768;28;20506;-63
2022/05/16 01:27:11;;;;;;;6.77;4.20;;;;;;;13.08;70.76;100399.84;5122847;28;20469;-63
2022/05/16 01:29:38;;;;;;;6.90;5.27;;;;;;;13.07;70.46;100390.13;5107250;28;20518;-64
2022/05/16 01:32:05;;;;;;;8.90;4.20;;;;;;;13.02;71.04;100391.56;5101446;28;20463;-64
2022/05/16 01:34:32;;;;;;;8.90;4.00;;;;;;;13.05;71.09;100386.75;5102569;28;20802;-64
2022/05/16 01:36:59;;;;;;;10.47;4.60;;;;;;;13.02;71.06;100387.06;5122197;28;20462;-64
2022/05/16 01:39:27;;;;;;;10.97;4.80;;;;;;;13.04;71.26;100381.53;5122377;28;20446;-63
2022/05/16 01:41:53;;;;;;;12.37;4.80;;;;;;;12.99;71.46;100382.00;5122385;28;20508;-64
2022/05/16 01:44:20;;;;;;;12.20;5.00;;;;;;;13.00;71.69;100380.97;5115334;28;20447;-64
2022/05/16 01:46:47;;;;;;;10.17;4.47;;;;;;;12.97;71.79;100381.31;5101261;28;20475;-64
2022/05/16 01:49:14;;;;;;;9.17;4.43;;;;;;;12.91;71.57;100379.22;5101803;28;20457;-64
2022/05/16 01:51:41;;;;;;;8.90;4.83;;;;;;;12.84;71.79;100378.16;5109428;28;20476;-64
2022/05/16 01:54:08;;;;;;;10.47;4.33;;;;;;;12.76;72.15;100369.03;5120934;28;20534;-64
2022/05/16 01:56:37;;;;;;;10.27;3.90;;;;;;;12.90;72.14;100366.81;5121945;28;20473;-64
2022/05/16 01:59:05;;;;;;;9.80;4.77;;;;;;;12.92;72.05;100364.84;5122432;28;20442;-65
2022/05/16 02:01:32;;;;;;;8.43;3.90;;;;;;;12.97;71.71;100365.22;5121489;28;20466;-65
2022/05/16 02:03:59;;;;;;;5.47;3.97;;;;;;;12.91;71.64;100368.50;5120430;28;20446;-64
2022/05/16 02:06:25;;;;;;;10.00;4.87;;;;;;;12.81;71.92;100364.06;5121810;28;20856;-65
2022/05/16 02:08:52;;;;;;;14.33;4.57;;;;;;;12.78;72.22;100369.72;5121804;28;20437;-65
2022/05/16 02:11:19;;;;;;;7.40;4.60;;;;;;;12.76;72.10;100371.72;5121056;28;20537;-65
2022/05/16 02:13:47;;;;;;;8.03;4.60;;;;;;;12.71;72.74;100374.00;5113520;28;20498;-64
2022/05/16 02:16:14;;;;;;;10.10;4.50;;;;;;;12.67;72.72;100369.91;5120725;28;20466;-64
2022/05/16 02:18:41;;;;;;;8.80;4.27;;;;;;;12.66;72.79;100364.72;5121861;28;20430;-64
2022/05/16 02:26:36;;;;;;;13.13;5.37;;;;;;;12.52;73.31;100358.88;5101274;28;20726;-65
2022/05/16 02:29:04;;;;;;;10.53;5.17;;;;;;;12.43;73.37;100357.09;5101140;28;20791;-65
2022/05/16 02:31:31;;;;;;;10.67;4.83;;;;;;;12.43;73.27;100357.94;5099098;28;20471;-65
2022/05/16 02:33:58;;;;;;;10.33;4.37;;;;;;;12.39;73.39;100358.38;5105259;28;20606;-65
2022/05/16 02:36:25;;;;;;;9.43;4.43;;;;;;;12.38;73.67;100346.00;5120909;28;20469;-66
2022/05/16 02:38:52;;;;;;;8.20;4.00;;;;;;;12.35;73.80;100341.75;5121417;28;20445;-65
2022/05/16 02:41:18;;;;;;;9.57;4.37;;;;;;;12.23;74.44;100337.59;5120635;28;20989;-65
2022/05/16 02:43:46;;;;;;;11.73;4.30;;;;;;;12.15;74.40;100346.41;5118475;28;20442;-65
2022/05/16 02:46:14;;;;;;;10.63;5.03;;;;;;;12.18;75.14;100331.84;5099672;28;20494;-65
2022/05/16 02:48:40;;;;;;;12.30;5.60;;;;;;;12.22;74.70;100328.72;5100895;28;20520;-66
2022/05/16 02:51:07;;;;;;;11.10;4.90;;;;;;;12.24;74.40;100317.84;5117016;28;21053;-66
2022/05/16 02:53:34;;;;;;;7.70;4.40;;;;;;;12.24;74.21;100324.03;5121015;28;20458;-66
2022/05/16 02:56:00;;;;;;;11.70;5.13;;;;;;;12.21;74.45;100318.97;5120359;28;20939;-65
2022/05/16 02:58:27;;;;;;;11.30;5.73;;;;;;;12.21;74.32;100318.97;5121088;28;20452;-65
2022/05/16 03:00:54;;;;;;;13.37;5.07;;;;;;;12.20;74.32;100316.44;5117259;28;20473;-66
2022/05/16 03:03:22;;;;;;;14.57;5.50;;;;;;;12.20;74.42;100321.81;5100277;28;20419;-65
2022/05/16 03:05:49;;;;;;;12.20;4.40;;;;;;;12.23;74.33;100318.84;5100359;28;20486;-65
2022/05/16 03:08:16;;;;;;;9.00;4.97;;;;;;;12.18;74.52;100313.06;5100581;28;20489;-65
2022/05/16 03:10:43;;;;;;;9.50;5.57;;;;;;;12.15;74.48;100313.38;5099834;28;20553;-65
2022/05/16 03:13:09;;;;;;;10.53;5.30;;;;;;;12.09;74.73;100309.44;5120367;28;20711;-65
2022/05/16 03:15:36;;;;;;;9.77;5.67;;;;;;;12.06;74.95;100309.75;5119206;28;20477;-65
2022/05/16 03:18:03;;;;;;;8.33;5.73;;;;;;;12.07;74.68;100308.75;5120836;28;20432;-65
2022/05/16 03:20:32;;;;;;;11.73;5.43;;;;;;;12.10;74.42;100303.13;5119600;28;20469;-65
2022/05/16 03:22:58;;;;;;;9.47;6.10;;;;;;;12.00;74.41;100305.81;5101196;28;20447;-65
2022/05/16 03:25:25;;;;;;;10.17;6.50;;;;;;;11.90;75.04;100310.34;5117555;28;20447;-65
2022/05/16 03:27:52;;;;;;;13.30;6.10;;;;;;;11.91;75.38;100305.88;5120792;28;20623;-66
2022/05/16 03:30:19;;;;;;;10.73;6.30;;;;;;;11.98;75.14;100299.78;5119590;28;20786;-65
2022/05/16 03:32:45;;;;;;;12.17;5.77;;;;;;;12.01;75.08;100296.81;5103418;28;20469;-66
2022/05/16 03:35:12;;;;;;;8.27;5.50;;;;;;;12.08;74.61;100290.84;5099210;28;20491;-65
2022/05/16 03:37:40;;;;;;;10.33;5.57;;;;;;;12.14;74.29;100291.09;5100323;28;20950;-65
2022/05/16 03:42:53;;;;;;;11.33;5.47;;;;;;;12.68;72.46;100291.16;5117579;28;20468;-63
2022/05/16 03:45:19;;;;;;;10.60;5.90;;;;;;;13.09;70.97;100290.66;5118943;28;20475;-63
2022/05/16 03:47:46;;;;;;;12.13;5.60;;;;;;;13.53;69.22;100287.97;5121290;28;20435;-62
2022/05/16 03:50:13;;;;;;;11.73;6.07;;;;;;;13.98;67.37;100286.84;5113629;28;20916;-63
2022/05/16 03:52:42;;;;;;;9.10;6.60;;;;;;;14.60;64.96;100289.25;5120763;28;20497;-63
2022/05/16 03:55:12;;;;;;;8.47;5.73;;;;;;;15.14;62.72;100285.22;5119253;28;20481;-63
2022/05/16 03:57:39;;;;;;;11.60;5.90;;;;;;;15.51;60.81;100286.53;5120041;28;20437;-63
2022/05/16 04:00:11;;;;;;;7.87;5.63;;;;;;;15.67;59.82;100277.53;5116660;28;20938;-63
2022/05/16 04:02:38;;;;;;;8.00;5.33;;;;;;;16.27;58.20;100286.94;5099950;28;20471;-63
2022/05/16 04:05:06;;;;;;;10.60;5.57;;;;;;;16.99;55.88;100277.69;5099885;28;20446;-63
2022/05/16 04:07:33;;;;;;;7.43;4.60;;;;;;;17.63;53.73;100285.34;5099308;28;20447;-63
2022/05/16 04:10:02;;;;;;;11.43;5.60;;;;;;;18.02;52.19;100282.38;5100845;28;20457;-63
2022/05/16 04:12:29;;;;;;;6.77;4.47;;;;;;;18.55;50.86;100273.19;5117656;28;20478;-62
2022/05/16 04:14:56;;;;;;;9.27;5.20;;;;;;;18.78;49.68;100279.28;5119137;28;20558;-63
2022/05/16 04:17:23;;;;;;;7.97;4.27;;;;;;;18.44;50.79;100278.09;5119438;28;20504;-63
2022/05/16 04:19:49;;;;;;;9.30;5.13;;;;;;;18.68;49.46;100272.47;5120002;28;20434;-62
2022/05/16 04:22:19;;;;;;;6.27;4.50;;;;;;;18.70;49.18;100265.03;5099077;28;20517;-63
2022/05/16 04:24:45;;;;;;;6.43;4.63;;;;;;;19.46;47.83;100267.97;5103510;28;20522;-63
2022/05/16 04:27:14;;;;;;;7.60;4.73;;;;;;;20.04;46.40;100266.84;5124946;28;20497;-62
2022/05/16 04:29:41;;;;;;;7.60;4.97;;;;;;;20.24;45.70;100270.50;5118661;28;20945;-63
2022/05/16 04:32:08;;;;;;;9.53;4.73;;;;;;;20.41;45.43;100265.50;5115249;28;21554;-62
2022/05/16 04:34:35;;;;;;;10.30;4.90;;;;;;;20.81;44.20;100264.78;5099359;28;20518;-62
2022/05/16 04:37:01;;;;;;;6.00;4.17;;;;;;;21.13;43.29;100260.41;5117640;28;20462;-61
2022/05/16 04:39:28;;;;;;;8.47;5.00;;;;;;;21.20;42.86;100265.84;5118975;28;20457;-62
2022/05/16 04:44:40;;;;;;;6.60;4.00;;;;;;;21.17;42.98;100267.09;5115043;28;20461;-62
2022/05/16 04:47:11;;;;;;;6.50;4.53;;;;;;;21.25;43.26;100268.78;5116980;28;21128;-62
2022/05/16 04:49:37;;;;;;;8.17;4.40;;;;;;;21.28;43.33;100267.50;5109264;28;20451;-62
2022/05/16 04:52:05;;;;;;;9.67;4.63;;;;;;;22.63;40.15;100264.13;5109566;28;20485;-62
2022/05/16 04:54:31;;;;;;;9.07;4.50;;;;;;;22.78;39.81;100266.56;5118957;28;20482;-62
2022/05/16 04:56:58;;;;;;;9.30;4.40;;;;;;;22.66;39.70;100274.59;5122817;28;20512;-64
2022/05/16 04:59:25;;;;;;;10.20;4.43;;;;;;;22.84;39.54;100266.50;5122219;28;20446;-65
2022/05/16 05:01:53;;;;;;;11.77;4.40;;;;;;;22.27;40.62;100271.00;5121991;28;20611;-65
2022/05/16 05:04:20;;;;;;;6.50;3.90;;;;;;;23.00;38.82;100270.59;5122257;28;20450;-65
2022/05/16 05:06:47;;;;;;;7.20;4.10;;;;;;;23.52;37.91;100270.34;5122644;28;20980;-65
2022/05/16 05:09:14;;;;;;;10.03;4.70;;;;;;;23.56;37.20;100277.03;5121580;28;20479;-64
2022/05/16 05:14:35;;;;;;;7.87;3.70;;;;;;;23.62;36.33;100267.09;5120298;27;20935;-65
2022/05/16 05:17:06;;;;;;;11.13;4.13;;;;;;;24.39;35.13;100264.72;5120707;27;20495;-63
2022/05/16 05:19:33;;;;;;;5.77;3.10;;;;;;;24.28;35.51;100260.03;5120283;27;20442;-63
2022/05/16 05:22:00;;;;;;;6.10;3.60;;;;;;;23.82;36.81;100264.19;5121855;28;20470;-63
2022/05/16 05:24:28;;;;;;;6.17;3.67;;;;;;;24.09;36.34;100261.94;5121651;28;20483;-63
2022/05/16 05:26:54;;;;;;;10.63;3.43;;;;;;;23.94;36.18;100264.22;5120955;27;21020;-63
2022/05/16 05:29:22;;;;;;;7.87;4.13;;;;;;;24.64;34.12;100271.97;5115296;28;20446;-64
2022/05/16 05:31:50;;;;;;;7.83;3.37;;;;;;;24.41;34.95;100261.75;5121538;27;20529;-63
2022/05/16 05:34:18;;;;;;;7.60;3.30;;;;;;;23.79;36.83;100261.88;5120048;27;20549;-64
2022/05/16 05:36:45;;;;;;;5.23;2.87;;;;;;;24.49;35.54;100271.50;5121227;28;20473;-63
2022/05/16 05:39:16;;;;;;;8.30;3.77;;;;;;;24.04;35.71;100270.84;5118259;28;20545;-64
2022/05/16 05:41:43;;;;;;;8.40;3.67;;;;;;;24.42;35.52;100263.41;5092405;28;20482;-64
2022/05/16 05:44:09;;;;;;;7.13;3.57;;;;;;;24.48;34.92;100261.63;5086230;28;20455;-63
2022/05/16 05:46:37;;;;;;;10.23;3.30;;;;;;;25.20;34.16;100258.84;5080677;28;21016;-63
2022/05/16 05:49:04;;;;;;;7.50;3.50;;;;;;;24.81;34.45;100261.19;5081467;28;21010;-64
2022/05/16 05:51:32;;;;;;;7.60;3.30;;;;;;;24.71;34.62;100269.13;5081167;28;20483;-63
2022/05/16 05:53:58;;;;;;;8.90;3.47;;;;;;;24.76;35.35;100272.81;5082000;28;20452;-63
2022/05/16 05:56:25;;;;;;;7.03;3.10;;;;;;;25.58;34.31;100263.03;5080859;28;20480;-63
2022/05/16 05:58:52;;;;;;;8.67;2.87;;;;;;;26.80;32.01;100263.84;5079361;28;20640;-63
2022/05/16 06:01:19;;;;;;;6.60;2.80;;;;;;;25.82;33.71;100261.09;5080675;28;20471;-63
2022/05/16 06:03:46;;;;;;;7.20;3.17;;;;;;;25.54;33.46;100254.47;5082874;28;20444;-63
2022/05/16 06:06:12;;;;;;;5.87;2.33;;;;;;;24.92;35.02;100263.09;5095560;28;20499;-63
2022/05/16 06:08:40;;;;;;;6.50;2.90;;;;;;;24.80;35.09;100259.50;5087511;28;20439;-63
2022/05/16 06:11:07;;;;;;;10.53;3.53;;;;;;;23.94;36.26;100254.16;5095062;28;20514;-63
2022/05/16 06:13:34;;;;;;;7.60;3.03;;;;;;;23.78;37.09;100260.19;5092962;28;20431;-63
2022/05/16 06:16:00;;;;;;;14.23;3.40;;;;;;;23.04;38.45;100260.91;5091165;28;20494;-63
2022/05/16 06:18:27;;;;;;;7.20;2.63;;;;;;;23.74;37.15;100259.00;5089541;28;20441;-63
2022/05/16 06:20:54;;;;;;;8.20;3.40;;;;;;;23.83;36.67;100263.94;5097841;28;20501;-63
2022/05/16 06:23:21;;;;;;;7.40;3.53;;;;;;;24.38;35.34;100260.31;5086522;28;20429;-62
2022/05/16 06:25:49;;;;;;;6.67;3.13;;;;;;;24.74;35.61;100258.56;5083087;28;20501;-62
2022/05/16 06:28:17;;;;;;;5.83;3.00;;;;;;;25.39;34.79;100261.50;5093357;28;20435;-63
2022/05/16 06:30:46;;;;;;;5.53;2.90;;;;;;;25.77;33.61;100251.94;5083276;28;20475;-63
2022/05/16 06:33:14;;;;;;;8.63;2.90;;;;;;;26.64;32.27;100254.53;5090605;28;20433;-63
2022/05/16 06:35:42;;;;;;;5.40;2.80;;;;;;;26.70;31.94;100246.38;5090534;28;20475;-63
2022/05/16 06:38:10;;;;;;;6.80;2.50;;;;;;;26.75;32.03;100254.72;5090695;28;20451;-62
2022/05/16 06:40:38;;;;;;;4.77;2.43;;;;;;;26.63;31.59;100241.06;5097386;28;20470;-63
2022/05/16 06:43:07;;;;;;;7.63;3.00;;;;;;;26.37;31.66;100245.22;5097799;28;21015;-63
2022/05/16 06:45:34;;;;;;;4.77;2.33;;;;;;;26.79;30.80;100243.00;5098439;28;20757;-63
2022/05/16 06:48:01;;;;;;;11.23;3.50;;;;;;;26.89;30.93;100242.34;5099214;28;20435;-63
2022/05/16 06:50:28;;;;;;;5.90;2.63;;;;;;;27.38;30.06;100244.50;5082909;28;20502;-63
2022/05/16 06:52:55;;;;;;;6.83;2.93;;;;;;;28.40;29.20;100247.72;5099142;28;20820;-63
2022/05/16 06:55:22;;;;;;;8.40;2.90;;;;;;;28.88;28.04;100248.72;5099925;28;20478;-63
2022/05/16 06:57:48;;;;;;;5.43;2.43;;;;;;;27.91;29.09;100250.41;5099126;28;20447;-63
2022/05/16 07:00:18;;;;;;;8.77;3.07;;;;;;;26.80;30.81;100249.31;5097897;28;20496;-63
2022/05/16 07:02:45;;;;;;;6.07;2.90;;;;;;;27.39;29.31;100232.44;5099469;28;20474;-63
2022/05/16 07:05:13;;;;;;;7.03;3.27;;;;;;;28.47;28.46;100237.34;5099077;28;20471;-63
2022/05/16 07:07:40;;;;;;;5.60;2.80;;;;;;;26.92;29.88;100243.75;5101289;28;20456;-63
2022/05/16 07:10:08;;;;;;;9.07;3.00;;;;;;;27.01;30.28;100245.00;5087279;28;20936;-62
2022/05/16 07:12:34;;;;;;;6.10;2.70;;;;;;;27.01;29.58;100240.34;5091283;28;20479;-64
2022/05/16 07:15:01;;;;;;;6.93;2.63;;;;;;;27.76;29.22;100229.91;5098182;28;20501;-64
2022/05/16 07:17:29;;;;;;;8.33;2.63;;;;;;;27.36;29.39;100224.69;5094921;28;20532;-64
2022/05/16 07:19:56;;;;;;;5.93;2.30;;;;;;;28.10;28.79;100217.97;5099525;28;20903;-63
2022/05/16 07:22:23;;;;;;;9.23;2.70;;;;;;;27.35;30.65;100223.88;5098712;28;20474;-63
2022/05/16 07:24:51;;;;;;;5.33;2.80;;;;;;;28.62;28.83;100228.44;5097253;28;20476;-63
2022/05/16 07:30:02;;;;;;;5.70;2.77;;;;;;;29.48;27.08;100237.63;5087880;28;20439;-63
2022/05/16 07:32:35;;;;;;;6.27;2.37;;;;;;;30.02;25.96;100234.59;5098792;28;20478;-63
2022/05/16 07:35:04;;;;;;;5.77;3.00;;;;;;;30.52;25.37;100251.56;5098134;28;20483;-63
2022/05/16 07:37:31;;;;;;;8.30;3.03;;;;;;;29.72;26.39;100243.56;5098221;28;20592;-63
2022/05/16 07:39:58;;;;;;;5.53;2.53;;;;;;;30.60;25.53;100239.97;5095974;28;20454;-63
2022/05/16 07:42:24;;;;;;;9.50;3.07;;;;;;;29.17;26.52;100237.44;5107485;28;21088;-63
2022/05/16 07:44:51;;;;;;;6.70;3.00;;;;;;;29.70;26.39;100237.44;5098499;28;20474;-63
2022/05/16 07:47:18;;;;;;;8.07;2.80;;;;;;;29.29;26.67;100238.06;5099411;28;20467;-63
2022/05/16 07:49:46;;;;;;;6.70;2.93;;;;;;;29.87;26.46;100240.03;5112529;28;20832;-63
2022/05/16 07:52:13;;;;;;;5.63;2.67;;;;;;;30.11;25.99;100226.63;5119042;27;20500;-67
2022/05/16 07:54:39;;;;;;;6.37;2.73;;;;;;;28.51;27.57;100227.47;5118792;28;20446;-68
2022/05/16 07:57:06;;;;;;;6.90;2.60;;;;;;;28.40;28.24;100225.72;5117740;27;20508;-65
2022/05/16 07:59:33;;;;;;;9.20;2.80;;;;;;;28.58;28.21;100229.22;5119912;28;20434;-68
2022/05/16 08:02:00;;;;;;;6.50;2.63;;;;;;;29.10;27.38;100232.13;5115979;28;20478;-62
2022/05/16 08:04:27;;;;;;;8.43;3.00;;;;;;;28.30;28.30;100231.94;5119003;28;20458;-65
2022/05/16 08:06:55;;;;;;;7.53;3.03;;;;;;;29.29;26.77;100227.06;5118025;28;20478;-65
2022/05/16 08:12:07;;;;;;;5.50;2.50;;;;;;;29.28;26.78;100241.09;5119434;27;20477;-65
2022/05/16 08:14:34;;;;;;;7.20;2.80;;;;;;;29.66;27.13;100239.09;5119299;28;20468;-64
2022/05/16 08:17:01;;;;;;;7.20;2.90;;;;;;;29.29;28.29;100237.25;5118189;27;20474;-64
2022/05/16 08:19:29;;;;;;;7.10;2.90;;;;;;;30.05;27.27;100233.25;5120204;28;20438;-69
2022/05/16 08:21:57;;;;;;;6.37;2.93;;;;;;;30.56;26.49;100240.81;5118812;27;20470;-64
2022/05/16 08:24:24;;;;;;;4.83;2.63;;;;;;;31.56;24.84;100233.88;5120686;28;20459;-63
2022/05/16 08:26:51;;;;;;;3.40;2.10;;;;;;;31.60;24.64;100234.16;5118713;28;20478;-67
2022/05/16 08:29:18;;;;;;;6.43;2.83;;;;;;;31.69;24.98;100246.28;5119278;28;20514;-63
2022/05/16 08:31:44;;;;;;;8.43;2.60;;;;;;;31.05;25.29;100254.09;5120358;27;20798;-64
2022/05/16 08:34:11;;;;;;;6.57;3.00;;;;;;;30.81;25.40;100252.97;5122004;28;20452;-64
2022/05/16 08:42:10;;;;;;;7.03;3.20;;;;;;;29.21;28.43;100246.81;5121926;28;21042;-64
2022/05/16 08:44:39;;;;;;;6.90;2.73;;;;;;;27.80;31.07;100247.53;5122745;28;20489;-65
2022/05/16 08:47:18;;;;;;;8.33;3.33;;;;;;;26.89;32.31;100245.09;5123068;27;20530;-63
2022/05/16 08:49:49;;;;;;;6.43;2.77;;;;;;;26.40;32.96;100259.25;5123804;28;20446;-65
2022/05/16 08:52:23;;;;;;;6.20;3.77;;;;;;;26.43;33.26;100245.06;5121123;27;20481;-67
2022/05/16 08:54:57;;;;;;;4.47;3.33;;;;;;;26.52;33.04;100252.91;5121793;28;20450;-67
2022/05/16 08:57:30;;;;;;;8.80;3.10;;;;;;;27.05;32.35;100248.91;5122081;28;20496;-68
2022/05/16 09:00:02;;;;;;;3.93;2.90;;;;;;;28.10;31.01;100243.53;5122100;28;20441;-64
2022/05/16 09:02:30;;;;;;;4.90;2.70;;;;;;;29.16;29.09;100245.97;5121228;28;20514;-64
2022/05/16 09:05:03;;;;;;;7.90;3.30;;;;;;;28.76;30.19;100245.34;5123273;28;20450;-64
2022/05/16 09:07:34;;;;;;;7.30;3.70;;;;;;;28.25;30.18;100242.06;5123425;27;20478;-64
2022/05/16 09:10:10;;;;;;;6.90;3.10;;;;;;;28.12;30.84;100244.13;5121393;28;20839;-66
2022/05/16 09:12:43;;;;;;;8.87;3.23;;;;;;;27.80;31.86;100244.78;5116177;28;20458;-64
2022/05/16 09:15:18;;;;;;;5.93;3.37;;;;;;;28.32;31.24;100246.25;5121220;27;20441;-64
2022/05/16 09:17:55;;;;;;;6.57;2.80;;;;;;;28.62;31.31;100238.59;5122026;28;20449;-67
2022/05/16 09:20:30;;;;;;;7.20;2.90;;;;;;;28.61;30.70;100242.44;5121259;28;20534;-66
2022/05/16 09:23:01;;;;;;;7.83;3.20;;;;;;;28.39;31.75;100235.06;5121563;28;20785;-65
2022/05/16 09:25:33;;;;;;;7.03;3.10;;;;;;;28.52;31.19;100236.53;5121403;28;20497;-66
2022/05/16 09:30:47;;;;;;;5.87;3.50;;;;;;;27.80;33.35;100241.22;5120595;28;20480;-65
2022/05/16 09:33:18;;;;;;;6.10;2.97;;;;;;;28.49;32.02;100246.16;5120386;28;20447;-64
2022/05/16 09:35:50;;;;;;;5.70;2.87;;;;;;;28.75;31.72;100243.69;5121353;28;20494;-63
2022/05/16 09:38:19;;;;;;;5.10;3.40;;;;;;;28.50;31.54;100256.06;5122434;28;20423;-64
2022/05/16 09:40:56;;;;;;;8.10;3.37;;;;;;;28.08;32.14;100256.72;5117762;27;20793;-64
2022/05/16 09:43:24;;;;;;;5.77;2.73;;;;;;;28.28;31.51;100255.28;5121448;28;20479;-63
2022/05/16 09:45:54;;;;;;;6.20;3.20;;;;;;;29.13;30.96;100261.06;5120158;27;20470;-63
2022/05/16 09:48:23;;;;;;;5.87;3.13;;;;;;;28.74;30.42;100255.78;5122167;28;20438;-63
2022/05/16 09:50:57;;;;;;;5.67;2.80;;;;;;;29.17;30.59;100253.13;5120995;27;20466;-63
2022/05/16 09:53:30;;;;;;;8.33;2.97;;;;;;;28.56;31.16;100257.00;5104936;28;20468;-63
2022/05/16 09:56:03;;;;;;;7.33;2.90;;;;;;;28.69;30.99;100262.06;5120032;28;20805;-63
2022/05/16 09:58:35;;;;;;;7.13;3.33;;;;;;;28.46;31.50;100256.84;5120402;28;21144;-63
2022/05/16 10:01:04;;;;;;;4.83;3.07;;;;;;;28.10;32.13;100250.97;5118993;28;20889;-63
2022/05/16 10:03:33;;;;;;;5.17;3.00;;;;;;;28.49;32.43;100253.59;5121068;28;20939;-63
2022/05/16 10:06:01;;;;;;;5.10;2.83;;;;;;;28.13;32.57;100250.44;5120146;27;20477;-63
2022/05/16 10:08:32;;;;;;;5.60;3.13;;;;;;;28.22;32.44;100254.38;5119930;28;20449;-64
2022/05/16 10:11:02;;;;;;;6.77;3.00;;;;;;;29.23;30.03;100249.31;5120548;27;20538;-64
2022/05/16 10:13:29;;;;;;;8.97;3.30;;;;;;;29.43;31.66;100267.91;5122335;28;20458;-64
2022/05/16 10:15:58;;;;;;;6.30;3.20;;;;;;;29.40;30.69;100265.69;5120887;28;21152;-64
2022/05/16 10:18:26;;;;;;;7.53;3.53;;;;;;;29.46;29.55;100270.09;5121869;28;20442;-64
2022/05/16 10:20:58;;;;;;;6.60;2.80;;;;;;;28.76;29.38;100266.53;5121611;27;20499;-64
2022/05/16 10:23:33;;;;;;;6.07;3.27;;;;;;;27.78;30.35;100268.94;5121028;28;20464;-64
2022/05/16 10:26:03;;;;;;;6.53;3.40;;;;;;;27.72;30.06;100263.63;5121856;27;20469;-64
2022/05/16 10:28:35;;;;;;;6.23;3.00;;;;;;;27.68;31.88;100271.56;5121761;28;20441;-63
2022/05/16 10:33:48;;;;;;;5.87;3.30;;;;;;;27.07;31.70;100278.84;5121239;28;20413;-63
2022/05/16 10:36:24;;;;;;;6.63;3.40;;;;;;;27.04;32.03;100275.50;5120748;27;20503;-62
2022/05/16 10:38:55;;;;;;;11.70;3.80;;;;;;;27.88;31.34;100267.41;5119064;28;20495;-62
2022/05/16 10:41:26;;;;;;;7.13;3.10;;;;;;;27.76;31.92;100273.06;5116269;28;20479;-62
2022/05/16 10:44:00;;;;;;;6.30;3.03;;;;;;;28.06;31.91;100275.38;5099878;28;20430;-62
2022/05/16 10:46:31;;;;;;;9.40;3.10;;;;;;;27.58;32.34;100272.22;5099048;28;20984;-62
2022/05/16 10:49:01;;;;;;;5.87;3.00;;;;;;;26.93;32.44;100272.88;5103783;28;20935;-63
2022/05/16 10:51:32;;;;;;;5.47;3.60;;;;;;;27.39;32.75;100274.47;5119579;28;20834;-62
2022/05/16 10:54:06;;;;;;;9.70;3.30;;;;;;;27.01;33.42;100287.00;5113820;28;20932;-63
2022/05/16 10:56:59;;;;;;;5.40;2.97;;;;;;;26.61;33.69;100284.31;5099728;28;20551;-63
2022/05/16 10:59:36;;;;;;;11.10;3.17;;;;;;;26.90;34.13;100284.31;5086591;28;20439;-63
2022/05/16 11:02:09;;;;;;;9.77;3.17;;;;;;;26.44;34.51;100293.34;5098384;28;20654;-63
2022/05/16 11:04:45;;;;;;;5.17;3.03;;;;;;;26.62;34.30;100286.03;5099823;28;20732;-63
2022/05/16 11:07:20;;;;;;;7.53;3.60;;;;;;;26.48;34.18;100288.22;5098640;28;20471;-64
2022/05/16 11:09:52;;;;;;;6.93;3.90;;;;;;;26.24;34.13;100274.59;5099239;28;20476;-63
2022/05/16 11:12:29;;;;;;;7.83;4.00;;;;;;;25.74;35.57;100284.22;5098131;28;20478;-63
2022/05/16 11:15:02;;;;;;;6.27;3.50;;;;;;;25.82;37.33;100285.75;5098126;28;20498;-63
2022/05/16 11:17:33;;;;;;;9.10;3.83;;;;;;;26.12;35.69;100279.28;5102266;28;20478;-63
2022/05/16 11:20:06;;;;;;;6.20;3.80;;;;;;;25.81;35.66;100278.59;5102302;28;20485;-63
2022/05/16 11:22:38;;;;;;;9.63;4.07;;;;;;;25.91;36.11;100278.81;5096983;28;20557;-62
2022/05/16 11:25:09;;;;;;;8.23;3.60;;;;;;;26.12;36.07;100284.75;5098535;28;20951;-62
2022/05/16 11:27:46;;;;;;;14.17;4.07;;;;;;;26.50;36.09;100283.31;5103457;28;20462;-62
2022/05/16 11:30:17;;;;;;;10.80;3.70;;;;;;;26.64;35.00;100290.19;5117742;28;20426;-62
2022/05/16 11:32:57;;;;;;;7.37;3.80;;;;;;;27.60;34.32;100278.31;5098578;28;20999;-63
2022/05/16 11:35:26;;;;;;;9.10;3.97;;;;;;;27.60;33.14;100285.72;5098842;28;20503;-63
2022/05/16 11:38:23;;;;;;;11.33;4.47;;;;;;;27.86;33.92;100286.06;5098603;28;20478;-62
2022/05/16 11:40:55;;;;;;;7.63;3.33;;;;;;;27.91;33.31;100278.75;5095771;28;20478;-63
2022/05/16 11:43:28;;;;;;;61.50;6.20;;;;;;;27.71;33.61;100276.56;5099529;28;20461;-63
2022/05/16 11:46:26;;;;;;;8.40;3.60;;;;;;;28.49;32.26;100279.16;5096938;28;20473;-63
2022/05/16 11:49:00;;;;;;;5.83;3.17;;;;;;;28.86;31.10;100281.19;5095507;28;20460;-62
2022/05/16 11:51:38;;;;;;;7.07;3.93;;;;;;;28.15;32.01;100276.56;5098125;28;20503;-63
2022/05/16 11:54:06;;;;;;;5.00;3.20;;;;;;;27.74;32.69;100281.53;5098633;28;20973;-61
2022/05/16 12:02:20;;;;;;;8.30;4.10;;;;;;;28.16;33.14;100269.19;5092102;28;20874;-62
2022/05/16 12:04:49;;;;;;;9.13;3.63;;;;;;;28.05;32.94;100268.22;5101224;28;20864;-62
2022/05/16 12:07:22;;;;;;;10.10;3.83;;;;;;;27.88;33.95;100270.16;5102727;28;20470;-62
2022/05/16 12:09:55;;;;;;;8.30;3.73;;;;;;;27.53;34.92;100269.44;5104579;28;20488;-62